createdAt,value
2018-03-21T00:00:17.514Z,54.40
2018-03-21T00:02:45.552Z,54.40
2018-03-21T00:05:13.633Z,54.60
2018-03-21T00:07:41.659Z,54.80
2018-03-21T00:10:09.769Z,55.40
2018-03-21T00:12:37.796Z,54.70
2018-03-21T00:15:05.859Z,55.50
2018-03-21T00:17:34.229Z,54.90
2018-03-21T00:20:02.279Z,54.90
2018-03-21T00:22:30.320Z,54.90
2018-03-21T00:24:58.362Z,54.80
2018-03-21T00:27:26.391Z,55.10
2018-03-21T00:29:54.477Z,55.50
2018-03-21T00:32:22.524Z,55.30
2018-03-21T00:34:50.574Z,55.40
2018-03-21T00:37:18.615Z,55.60
2018-03-21T00:39:46.848Z,55.30
2018-03-21T00:42:14.937Z,55.70
2018-03-21T00:44:42.974Z,55.90
2018-03-21T00:47:11.018Z,58.10
2018-03-21T00:49:39.102Z,58.00
2018-03-21T00:52:07.130Z,57.30
2018-03-21T00:54:35.204Z,57.00
2018-03-21T00:57:03.236Z,56.80
2018-03-21T00:59:31.286Z,55.10
2018-03-21T01:01:59.320Z,54.60
2018-03-21T01:04:27.382Z,54.80
2018-03-21T01:06:55.462Z,55.20
2018-03-21T01:09:23.529Z,55.20
2018-03-21T01:11:51.567Z,54.80
2018-03-21T01:14:19.636Z,55.30
2018-03-21T01:16:54.085Z,55.30
2018-03-21T01:19:24.466Z,55.30
2018-03-21T01:21:58.722Z,55.40
2018-03-21T01:24:28.679Z,55.40
2018-03-21T01:26:59.926Z,56.00
2018-03-21T01:29:28.957Z,55.80
2018-03-21T01:32:02.487Z,55.10
2018-03-21T01:34:36.000Z,56.00
2018-03-21T01:37:14.777Z,55.80
2018-03-21T01:39:45.740Z,56.00
2018-03-21T01:42:13.779Z,59.20
2018-03-21T01:44:42.665Z,58.20
2018-03-21T01:47:10.713Z,57.40
2018-03-21T01:49:38.767Z,57.30
2018-03-21T01:52:06.845Z,56.80
2018-03-21T01:54:34.875Z,56.50
2018-03-21T01:57:02.918Z,54.90
2018-03-21T01:59:30.935Z,55.40
2018-03-21T02:01:59.771Z,54.90
2018-03-21T02:04:27.830Z,54.90
2018-03-21T02:06:55.896Z,55.00
2018-03-21T02:09:24.700Z,55.30
2018-03-21T02:11:52.747Z,55.30
2018-03-21T02:14:20.787Z,55.60
2018-03-21T02:16:48.856Z,54.90
2018-03-21T02:19:16.910Z,55.60
2018-03-21T02:21:45.142Z,55.80
2018-03-21T02:24:14.703Z,56.50
2018-03-21T02:26:42.794Z,56.40
2018-03-21T02:29:10.881Z,56.20
2018-03-21T02:31:38.920Z,58.40
2018-03-21T02:34:07.012Z,58.10
2018-03-21T02:36:35.077Z,57.30
2018-03-21T02:39:03.171Z,56.80
2018-03-21T02:41:31.234Z,56.80
2018-03-21T02:43:59.280Z,56.40
2018-03-21T02:46:27.333Z,54.90
2018-03-21T02:48:55.386Z,54.70
2018-03-21T02:51:23.484Z,54.70
2018-03-21T02:53:51.530Z,55.10
2018-03-21T02:56:19.589Z,55.80
2018-03-21T02:58:47.662Z,55.10
2018-03-21T03:01:15.779Z,55.10
2018-03-21T03:03:43.866Z,55.60
2018-03-21T03:06:11.916Z,56.00
2018-03-21T03:08:39.974Z,55.60
2018-03-21T03:11:08.031Z,56.00
2018-03-21T03:13:36.085Z,56.10
2018-03-21T03:16:04.186Z,56.10
2018-03-21T03:18:32.247Z,55.60
2018-03-21T03:21:00.269Z,55.30
2018-03-21T03:23:28.313Z,55.70
2018-03-21T03:25:56.350Z,55.70
2018-03-21T03:28:24.586Z,55.80
2018-03-21T03:30:52.617Z,58.30
2018-03-21T03:33:20.676Z,57.60
2018-03-21T03:35:50.216Z,57.00
2018-03-21T03:38:18.256Z,56.90
2018-03-21T03:40:46.319Z,56.70
2018-03-21T03:43:15.108Z,56.20
2018-03-21T03:45:43.146Z,56.10
2018-03-21T03:48:11.175Z,54.70
2018-03-21T03:50:39.226Z,55.00
2018-03-21T03:53:07.292Z,55.00
2018-03-21T03:55:35.347Z,54.70
2018-03-21T03:58:03.392Z,54.70
2018-03-21T04:00:31.440Z,55.10
2018-03-21T04:02:59.736Z,54.90
2018-03-21T04:05:27.818Z,55.00
2018-03-21T04:07:55.956Z,55.20
2018-03-21T04:10:24.002Z,55.20
2018-03-21T04:12:53.554Z,55.20
2018-03-21T04:15:21.610Z,55.20
2018-03-21T04:17:49.690Z,55.40
2018-03-21T04:20:17.737Z,55.90
2018-03-21T04:22:45.779Z,58.20
2018-03-21T04:25:13.818Z,56.10
2018-03-21T04:27:41.867Z,55.40
2018-03-21T04:30:10.738Z,51.90
2018-03-21T04:42:37.221Z,49.30
2018-03-21T04:45:05.303Z,46.30
2018-03-21T04:47:33.333Z,45.50
2018-03-21T04:50:01.389Z,46.10
2018-03-21T04:52:30.190Z,47.70
2018-03-21T04:54:58.273Z,47.70
2018-03-21T04:57:26.313Z,48.30
2018-03-21T04:59:54.334Z,48.70
2018-03-21T05:02:22.399Z,48.90
2018-03-21T05:04:50.459Z,49.10
2018-03-21T05:07:18.537Z,49.30
2018-03-21T05:09:46.579Z,49.60
2018-03-21T05:12:14.620Z,50.00
2018-03-21T05:14:42.644Z,50.10
2018-03-21T05:17:10.675Z,45.10
2018-03-21T05:19:39.508Z,45.70
2018-03-21T05:22:07.549Z,45.70
2018-03-21T05:24:35.615Z,46.00
2018-03-21T05:27:03.673Z,46.20
2018-03-21T05:29:31.741Z,46.50
2018-03-21T05:32:01.319Z,46.70
2018-03-21T05:34:29.384Z,46.70
2018-03-21T05:36:57.437Z,46.70
2018-03-21T05:39:25.452Z,46.70
2018-03-21T05:41:53.495Z,46.80
2018-03-21T05:44:21.548Z,46.80
2018-03-21T05:46:49.598Z,46.90
2018-03-21T05:49:18.398Z,47.00
2018-03-21T05:51:47.449Z,46.90
2018-03-21T05:54:15.489Z,47.00
2018-03-21T05:56:43.572Z,47.00
2018-03-21T05:59:11.600Z,47.00
2018-03-21T06:01:39.676Z,47.10
2018-03-21T06:04:08.485Z,47.40
2018-03-21T06:06:36.510Z,47.30
2018-03-21T06:09:04.577Z,47.30
2018-03-21T06:11:32.596Z,47.40
2018-03-21T06:14:00.646Z,47.30
2018-03-21T06:16:28.703Z,47.40
2018-03-21T06:18:56.742Z,47.40
2018-03-21T06:21:24.824Z,47.40
2018-03-21T06:23:52.921Z,47.40
2018-03-21T06:26:20.967Z,47.50
2018-03-21T06:28:48.992Z,47.50
2018-03-21T06:31:17.050Z,47.60
2018-03-21T06:33:45.152Z,47.60
2018-03-21T06:36:13.240Z,47.70
2018-03-21T06:38:41.271Z,47.60
2018-03-21T06:41:09.305Z,47.70
2018-03-21T06:43:37.341Z,47.60
2018-03-21T06:46:05.393Z,47.70
2018-03-21T06:48:34.181Z,47.80
2018-03-21T06:51:02.256Z,47.70
2018-03-21T06:53:30.274Z,47.30
2018-03-21T06:55:58.327Z,47.80
2018-03-21T06:58:26.385Z,47.80
2018-03-21T07:00:54.562Z,47.80
2018-03-21T07:03:23.018Z,47.80
2018-03-21T07:05:51.062Z,47.80
2018-03-21T07:15:48.090Z,44.10
2018-03-21T07:18:16.196Z,46.40
2018-03-21T07:20:44.243Z,46.70
2018-03-21T07:23:12.430Z,47.10
2018-03-21T07:25:40.448Z,46.60
2018-03-21T07:28:08.513Z,46.80
2018-03-21T07:30:36.584Z,46.90
2018-03-21T07:33:04.619Z,46.90
2018-03-21T07:35:32.737Z,47.20
2018-03-21T07:38:00.787Z,47.30
2018-03-21T07:40:28.839Z,47.30
2018-03-21T07:42:56.886Z,47.30
2018-03-21T07:45:24.946Z,46.80
2018-03-21T07:47:53.005Z,47.00
2018-03-21T07:50:21.062Z,46.70
2018-03-21T07:52:49.104Z,47.30
2018-03-21T07:55:17.144Z,47.20
2018-03-21T07:57:45.204Z,43.10
2018-03-21T08:00:13.275Z,43.40
2018-03-21T08:02:41.318Z,44.70
2018-03-21T08:05:09.369Z,45.50
2018-03-21T08:07:37.435Z,46.60
2018-03-21T08:10:05.480Z,46.70
2018-03-21T08:12:33.552Z,46.40
2018-03-21T08:15:01.597Z,46.90
2018-03-21T08:17:29.746Z,47.20
2018-03-21T08:19:57.974Z,47.40
2018-03-21T08:22:26.098Z,47.50
2018-03-21T08:24:54.162Z,48.10
2018-03-21T08:27:22.242Z,48.20
2018-03-21T08:29:50.316Z,47.90
2018-03-21T08:32:18.375Z,48.00
2018-03-21T08:34:46.431Z,48.10
2018-03-21T08:37:14.485Z,47.80
2018-03-21T08:39:42.548Z,47.20
2018-03-21T08:42:10.644Z,47.90
2018-03-21T08:44:38.708Z,48.10
2018-03-21T08:47:06.756Z,47.20
2018-03-21T08:49:34.833Z,47.90
2018-03-21T08:52:02.908Z,48.20
2018-03-21T08:54:31.008Z,48.30
2018-03-21T08:56:59.067Z,48.10
2018-03-21T08:59:27.126Z,48.30
2018-03-21T09:01:55.183Z,48.90
2018-03-21T09:04:23.281Z,48.90
2018-03-21T09:06:51.366Z,48.90
2018-03-21T09:09:19.421Z,48.00
2018-03-21T09:11:47.487Z,48.20
2018-03-21T09:14:15.535Z,48.30
2018-03-21T09:16:43.607Z,48.30
2018-03-21T09:19:11.683Z,45.60
2018-03-21T09:21:41.245Z,47.00
2018-03-21T09:24:09.309Z,47.00
2018-03-21T09:26:37.367Z,47.40
2018-03-21T09:29:05.421Z,47.70
2018-03-21T09:34:04.647Z,39.70
2018-03-21T09:36:32.705Z,47.20
2018-03-21T09:39:00.768Z,47.40
2018-03-21T09:41:30.319Z,46.30
2018-03-21T09:43:58.383Z,46.30
2018-03-21T09:46:26.461Z,46.90
2018-03-21T09:48:54.539Z,47.00
2018-03-21T09:51:22.591Z,46.80
2018-03-21T09:53:50.862Z,47.10
2018-03-21T09:56:18.987Z,47.40
2018-03-21T09:58:47.088Z,47.60
2018-03-21T10:01:15.171Z,47.70
2018-03-21T10:03:44.009Z,47.90
2018-03-21T10:06:12.102Z,47.80
2018-03-21T10:08:40.162Z,48.10
2018-03-21T10:11:08.235Z,48.20
2018-03-21T10:13:36.296Z,48.20
2018-03-21T10:16:04.418Z,48.50
2018-03-21T10:18:32.469Z,48.70
2018-03-21T10:21:00.540Z,48.50
2018-03-21T10:23:28.601Z,49.10
2018-03-21T10:25:56.673Z,47.30
2018-03-21T10:28:24.721Z,46.50
2018-03-21T10:30:52.789Z,48.00
2018-03-21T10:33:20.867Z,48.30
2018-03-21T10:35:49.031Z,48.40
2018-03-21T10:38:17.851Z,48.40
2018-03-21T10:40:45.931Z,48.40
2018-03-21T10:43:13.979Z,48.30
2018-03-21T10:45:42.313Z,48.20
2018-03-21T10:48:10.357Z,48.30
2018-03-21T10:50:38.395Z,48.20
2018-03-21T10:53:06.415Z,48.10
2018-03-21T10:55:34.467Z,48.20
2018-03-21T10:58:02.547Z,47.90
2018-03-21T11:00:30.585Z,40.60
2018-03-21T11:03:02.445Z,41.60
2018-03-21T11:05:30.498Z,43.70
2018-03-21T11:07:58.526Z,43.80
2018-03-21T11:10:26.570Z,43.30
2018-03-21T11:12:54.613Z,43.40
2018-03-21T11:15:22.662Z,43.30
2018-03-21T11:17:50.705Z,43.80
2018-03-21T11:20:18.762Z,45.60
2018-03-21T11:22:46.801Z,46.50
2018-03-21T11:25:14.899Z,47.10
2018-03-21T11:27:42.950Z,47.40
2018-03-21T11:30:10.984Z,47.70
2018-03-21T11:32:39.030Z,47.80
2018-03-21T11:35:07.084Z,47.90
2018-03-21T11:37:35.146Z,47.70
2018-03-21T11:40:03.230Z,48.00
2018-03-21T11:42:31.296Z,47.40
2018-03-21T11:44:59.397Z,47.30
2018-03-21T11:47:27.513Z,48.00
2018-03-21T11:49:55.630Z,48.00
2018-03-21T11:52:23.707Z,48.00
2018-03-21T11:54:51.821Z,48.30
2018-03-21T11:57:21.084Z,48.50
2018-03-21T11:59:49.196Z,48.50
2018-03-21T12:02:17.330Z,48.70
2018-03-21T12:04:45.654Z,48.80
2018-03-21T12:07:13.705Z,48.80
2018-03-21T12:09:43.281Z,48.80
2018-03-21T12:12:11.342Z,48.80
2018-03-21T12:14:39.413Z,48.80
2018-03-21T12:17:07.490Z,48.90
2018-03-21T12:19:35.553Z,49.00
2018-03-21T12:22:03.609Z,49.00
2018-03-21T12:24:31.689Z,48.90
2018-03-21T12:26:59.745Z,48.90
2018-03-21T12:29:27.815Z,49.40
2018-03-21T12:31:55.884Z,49.40
2018-03-21T12:34:23.943Z,49.20
2018-03-21T12:36:52.009Z,49.00
2018-03-21T12:39:20.086Z,48.90
2018-03-21T12:41:48.167Z,48.80
2018-03-21T12:44:16.241Z,49.00
2018-03-21T12:46:44.285Z,48.50
2018-03-21T12:49:12.366Z,48.40
2018-03-21T12:51:40.443Z,48.40
2018-03-21T12:54:08.505Z,48.70
2018-03-21T12:56:36.556Z,48.40
2018-03-21T12:59:04.612Z,44.60
2018-03-21T13:01:32.729Z,43.90
2018-03-21T13:04:00.793Z,45.40
2018-03-21T13:06:28.876Z,46.60
2018-03-21T13:08:56.989Z,47.40
2018-03-21T13:11:25.799Z,47.70
2018-03-21T13:13:53.873Z,47.70
2018-03-21T13:16:23.484Z,47.90
2018-03-21T13:18:51.919Z,47.90
2018-03-21T13:21:19.985Z,47.70
2018-03-21T13:23:48.013Z,45.30
2018-03-21T13:26:16.117Z,46.60
2018-03-21T13:28:45.677Z,48.00
2018-03-21T13:31:13.754Z,48.00
2018-03-21T13:33:41.810Z,47.80
2018-03-21T13:36:09.844Z,48.30
2018-03-21T13:38:37.917Z,48.30
2018-03-21T13:41:06.003Z,48.70
2018-03-21T13:43:34.074Z,48.40
2018-03-21T13:46:02.878Z,48.40
2018-03-21T13:48:30.925Z,48.40
2018-03-21T13:50:59.764Z,48.70
2018-03-21T13:53:27.805Z,48.70
2018-03-21T13:55:55.888Z,48.70
2018-03-21T13:58:23.938Z,48.80
2018-03-21T14:00:51.998Z,48.70
2018-03-21T14:03:20.058Z,48.70
2018-03-21T14:05:48.109Z,48.70
2018-03-21T14:08:16.165Z,48.70
2018-03-21T14:10:44.242Z,48.70
2018-03-21T14:13:12.291Z,48.80
2018-03-21T14:15:40.353Z,48.90
2018-03-21T14:18:08.414Z,48.90
2018-03-21T14:20:36.501Z,48.90
2018-03-21T14:23:05.308Z,49.00
2018-03-21T14:25:33.377Z,49.00
2018-03-21T14:28:01.406Z,49.00
2018-03-21T14:30:29.457Z,49.10
2018-03-21T14:32:57.515Z,49.10
2018-03-21T14:35:25.573Z,49.20
2018-03-21T14:37:53.627Z,49.10
2018-03-21T14:40:21.784Z,49.10
2018-03-21T14:42:49.837Z,48.90
2018-03-21T14:45:17.915Z,48.90
2018-03-21T14:47:45.983Z,49.00
2018-03-21T14:50:14.046Z,48.90
2018-03-21T14:52:42.097Z,48.90
2018-03-21T14:55:10.121Z,48.90
2018-03-21T14:57:38.240Z,49.10
2018-03-21T15:00:06.271Z,49.00
2018-03-21T15:02:34.345Z,49.00
2018-03-21T15:05:03.169Z,48.90
2018-03-21T15:07:31.210Z,48.90
2018-03-21T15:09:59.320Z,48.90
2018-03-21T15:12:27.384Z,49.10
2018-03-21T15:14:55.451Z,49.20
2018-03-21T15:17:23.500Z,48.00
2018-03-21T15:19:51.555Z,47.60
2018-03-21T15:22:21.108Z,48.70
2018-03-21T15:24:49.180Z,48.70
2018-03-21T15:27:17.264Z,48.90
2018-03-21T15:29:45.606Z,49.00
2018-03-21T15:32:13.738Z,48.50
2018-03-21T15:34:41.832Z,48.60
2018-03-21T15:37:09.896Z,48.70
2018-03-21T15:39:37.954Z,48.80
2018-03-21T15:42:06.736Z,49.00
2018-03-21T15:44:34.783Z,49.00
2018-03-21T15:47:02.871Z,49.00
2018-03-21T15:49:30.983Z,49.00
2018-03-21T15:51:59.102Z,49.00
2018-03-21T15:54:27.154Z,49.10
2018-03-21T15:56:55.215Z,49.10
2018-03-21T15:59:24.049Z,49.10
2018-03-21T16:01:52.115Z,49.00
2018-03-21T16:04:20.174Z,49.00
2018-03-21T16:06:48.225Z,48.90
2018-03-21T16:09:16.300Z,48.70
2018-03-21T16:11:44.359Z,48.90
2018-03-21T16:14:12.387Z,48.70
2018-03-21T16:16:40.451Z,48.70
2018-03-21T16:19:08.502Z,48.80
2018-03-21T16:21:36.536Z,48.90
2018-03-21T16:24:04.578Z,48.90
2018-03-21T16:26:32.611Z,49.70
2018-03-21T16:29:00.693Z,49.10
2018-03-21T16:31:28.747Z,49.10
2018-03-21T16:33:56.765Z,49.10
2018-03-21T16:36:24.880Z,49.20
2018-03-21T16:38:52.929Z,49.10
2018-03-21T16:41:21.004Z,49.10
2018-03-21T16:43:50.575Z,49.20
2018-03-21T16:46:18.625Z,49.20
2018-03-21T16:48:46.679Z,49.20
2018-03-21T16:51:14.725Z,49.10
2018-03-21T16:53:42.957Z,47.80
2018-03-21T16:56:11.014Z,47.90
2018-03-21T16:58:39.088Z,48.30
2018-03-21T17:01:07.147Z,48.30
2018-03-21T17:03:35.945Z,48.40
2018-03-21T17:06:03.984Z,48.40
2018-03-21T17:08:32.062Z,48.60
2018-03-21T17:11:01.622Z,48.70
2018-03-21T17:13:29.630Z,48.70
2018-03-21T17:15:57.701Z,48.70
2018-03-21T17:18:25.759Z,48.70
2018-03-21T17:20:53.815Z,48.60
2018-03-21T17:23:21.908Z,48.60
2018-03-21T17:25:49.967Z,48.50
2018-03-21T17:28:18.028Z,48.60
2018-03-21T17:30:46.092Z,48.60
2018-03-21T17:33:14.144Z,48.60
2018-03-21T17:35:42.206Z,48.60
2018-03-21T17:38:11.034Z,48.80
2018-03-21T17:40:39.128Z,48.80
2018-03-21T17:43:07.193Z,48.60
2018-03-21T17:45:35.698Z,48.60
2018-03-21T17:48:03.757Z,48.60
2018-03-21T17:50:31.792Z,48.60
2018-03-21T17:52:59.875Z,48.50
2018-03-21T17:55:27.963Z,48.60
2018-03-21T17:57:56.164Z,48.70
2018-03-21T18:00:24.151Z,48.80
2018-03-21T18:02:52.975Z,49.00
2018-03-21T18:05:21.017Z,49.00
2018-03-21T18:07:49.086Z,48.80
2018-03-21T18:10:17.138Z,48.60
2018-03-21T18:12:45.180Z,48.50
2018-03-21T18:15:13.267Z,48.90
2018-03-21T18:17:41.356Z,48.60
2018-03-21T18:20:09.429Z,48.60
2018-03-21T18:22:37.474Z,48.60
2018-03-21T18:25:05.547Z,48.80
2018-03-21T18:27:33.566Z,48.70
2018-03-21T18:30:03.149Z,46.70
2018-03-21T18:32:31.223Z,46.70
2018-03-21T18:34:59.262Z,47.40
2018-03-21T18:37:27.333Z,44.50
2018-03-21T18:39:55.377Z,46.40
2018-03-21T18:42:23.543Z,47.40
2018-03-21T18:44:51.690Z,48.20
2018-03-21T18:47:19.774Z,48.80
2018-03-21T18:49:48.595Z,49.00
2018-03-21T18:52:16.680Z,49.00
2018-03-21T18:54:44.766Z,48.60
2018-03-21T18:57:12.815Z,48.50
2018-03-21T18:59:40.887Z,49.00
2018-03-21T19:02:08.962Z,49.00
2018-03-21T19:04:37.060Z,49.60
2018-03-21T19:07:05.137Z,49.60
2018-03-21T19:09:33.180Z,49.60
2018-03-21T19:12:01.443Z,49.60
2018-03-21T19:14:29.498Z,49.50
2018-03-21T19:16:57.623Z,49.30
2018-03-21T19:19:25.660Z,49.40
2018-03-21T19:21:53.736Z,49.60
2018-03-21T19:24:21.792Z,49.50
2018-03-21T19:26:49.870Z,49.40
2018-03-21T19:29:18.006Z,49.40
2018-03-21T19:31:46.066Z,49.60
2018-03-21T19:34:14.144Z,49.40
2018-03-21T19:36:42.186Z,49.60
2018-03-21T19:39:10.253Z,49.50
2018-03-21T19:41:38.308Z,49.00
2018-03-21T19:44:06.381Z,43.70
2018-03-21T19:46:34.455Z,46.30
2018-03-21T19:49:02.511Z,45.70
2018-03-21T19:51:30.608Z,46.50
2018-03-21T19:53:59.016Z,47.70
2018-03-21T19:56:27.320Z,47.80
2018-03-21T19:58:55.392Z,48.00
2018-03-21T20:01:23.475Z,48.30
2018-03-21T20:03:51.561Z,48.20
2018-03-21T20:06:19.617Z,48.20
2018-03-21T20:08:47.698Z,48.40
2018-03-21T20:11:15.809Z,48.40
2018-03-21T20:13:43.897Z,48.60
2018-03-21T20:16:12.727Z,48.20
2018-03-21T20:18:40.823Z,48.20
2018-03-21T20:21:09.139Z,48.00
2018-03-21T20:23:37.185Z,48.40
2018-03-21T20:26:05.253Z,48.60
2018-03-21T20:28:33.313Z,48.30
2018-03-21T20:31:01.432Z,48.20
2018-03-21T20:33:29.471Z,48.00
2018-03-21T20:35:57.543Z,48.20
2018-03-21T20:38:26.522Z,47.30
2018-03-21T20:40:54.644Z,47.40
2018-03-21T20:43:22.693Z,47.70
2018-03-21T20:45:50.758Z,47.70
2018-03-21T20:48:18.822Z,47.80
2018-03-21T20:50:46.904Z,48.00
2018-03-21T20:53:15.018Z,48.70
2018-03-21T20:55:43.097Z,48.70
2018-03-21T20:58:11.162Z,48.20
2018-03-21T21:00:39.229Z,48.70
2018-03-21T21:03:07.320Z,48.40
2018-03-21T21:05:35.709Z,48.60
2018-03-21T21:08:03.760Z,48.40
2018-03-21T21:10:31.831Z,48.40
2018-03-21T21:12:59.868Z,45.50
2018-03-21T21:15:28.358Z,47.00
2018-03-21T21:17:56.424Z,46.80
2018-03-21T21:20:24.468Z,41.00
2018-03-21T21:22:52.508Z,44.10
2018-03-21T21:25:20.589Z,45.50
2018-03-21T21:27:48.712Z,48.20
2018-03-21T21:30:16.766Z,48.00
2018-03-21T21:32:45.598Z,48.40
2018-03-21T21:35:13.653Z,48.40
2018-03-21T21:37:41.727Z,48.70
2018-03-21T21:40:09.841Z,48.60
2018-03-21T21:42:37.912Z,48.40
2018-03-21T21:45:05.960Z,48.10
2018-03-21T21:47:34.049Z,48.50
2018-03-21T21:50:02.111Z,48.90
2018-03-21T21:52:30.169Z,48.40
2018-03-21T21:54:58.221Z,48.10
2018-03-21T21:57:26.267Z,48.50
2018-03-21T21:59:54.312Z,48.60
2018-03-21T22:02:23.203Z,48.90
2018-03-21T22:04:51.256Z,48.80
2018-03-21T22:07:19.321Z,48.90
2018-03-21T22:09:47.391Z,48.80
2018-03-21T22:12:20.928Z,48.80
2018-03-21T22:14:49.006Z,48.80
2018-03-21T22:17:17.073Z,48.80
2018-03-21T22:19:45.121Z,48.90
2018-03-21T22:22:13.152Z,49.00
2018-03-21T22:24:41.203Z,49.00
2018-03-21T22:27:10.049Z,49.00
2018-03-21T22:29:38.088Z,49.00
2018-03-21T22:32:06.146Z,48.80
2018-03-21T22:34:34.182Z,48.80
2018-03-21T22:37:02.218Z,48.70
2018-03-21T22:39:30.286Z,48.90
2018-03-21T22:41:58.330Z,48.90
2018-03-21T22:44:27.120Z,48.90
2018-03-21T22:46:55.163Z,48.90
2018-03-21T22:49:23.203Z,49.00
2018-03-21T22:51:51.292Z,48.80
2018-03-21T22:54:19.350Z,49.00
2018-03-21T22:56:47.404Z,48.80
2018-03-21T22:59:15.434Z,49.00
2018-03-21T23:01:44.274Z,48.90
2018-03-21T23:04:12.383Z,48.90
2018-03-21T23:06:40.428Z,49.00
2018-03-21T23:09:08.482Z,49.00
2018-03-21T23:11:36.522Z,49.20
2018-03-21T23:14:05.301Z,49.10
2018-03-21T23:16:33.346Z,49.10
2018-03-21T23:19:01.372Z,49.10
2018-03-21T23:21:29.462Z,49.10
2018-03-21T23:23:57.486Z,49.00
2018-03-21T23:26:25.509Z,49.20
2018-03-21T23:28:53.579Z,49.10
2018-03-21T23:31:21.727Z,49.20
2018-03-21T23:33:49.808Z,49.00
2018-03-21T23:36:17.871Z,49.10
2018-03-21T23:38:45.910Z,49.10
2018-03-21T23:41:13.958Z,49.10
2018-03-21T23:43:42.077Z,49.20
2018-03-21T23:46:10.139Z,49.00
2018-03-21T23:48:38.181Z,49.00
2018-03-21T23:51:06.222Z,49.10
2018-03-21T23:53:34.268Z,49.00
2018-03-21T23:56:03.087Z,49.10
2018-03-21T23:58:31.159Z,49.10
